createdAt,value
2019-01-04T00:01:45.542Z,0.30
2019-01-04T00:04:18.542Z,0.30
2019-01-04T00:06:48.730Z,0.30
2019-01-04T00:09:19.321Z,0.40
2019-01-04T00:11:49.634Z,0.40
2019-01-04T00:14:19.747Z,0.40
2019-01-04T00:16:49.871Z,0.40
2019-01-04T00:19:20.011Z,0.40
2019-01-04T00:21:50.207Z,0.50
2019-01-04T00:24:20.303Z,0.50
2019-01-04T00:26:50.422Z,0.50
2019-01-04T00:29:20.523Z,0.50
2019-01-04T00:31:50.653Z,0.50
2019-01-04T00:34:20.754Z,0.50
2019-01-04T00:36:51.122Z,0.40
2019-01-04T00:39:21.224Z,0.50
2019-01-04T00:41:51.351Z,0.40
2019-01-04T00:44:21.463Z,0.50
2019-01-04T00:46:51.571Z,0.50
2019-01-04T00:49:21.693Z,0.50
2019-01-04T00:51:51.846Z,0.50
2019-01-04T00:54:22.057Z,0.50
2019-01-04T00:57:09.022Z,0.50
2019-01-04T01:00:16.339Z,0.50
2019-01-04T01:03:52.198Z,0.50
2019-01-04T01:06:58.482Z,0.50
2019-01-04T01:09:58.447Z,0.60
2019-01-04T01:12:53.991Z,0.50
2019-01-04T01:15:59.445Z,0.50
2019-01-04T01:18:57.036Z,0.50
2019-01-04T01:22:06.170Z,0.50
2019-01-04T01:25:15.120Z,0.50
2019-01-04T01:28:29.155Z,0.60
2019-01-04T01:31:32.487Z,0.60
2019-01-04T01:34:32.954Z,0.60
2019-01-04T01:37:14.955Z,0.60
2019-01-04T01:40:11.284Z,0.60
2019-01-04T01:43:17.602Z,0.60
2019-01-04T01:46:24.269Z,0.60
2019-01-04T01:49:37.390Z,0.60
2019-01-04T01:52:15.426Z,0.60
2019-01-04T01:54:45.558Z,0.60
2019-01-04T01:57:15.655Z,0.70
2019-01-04T01:59:45.786Z,0.70
2019-01-04T02:02:15.906Z,0.70
2019-01-04T02:04:46.294Z,0.70
2019-01-04T02:07:16.966Z,0.70
2019-01-04T02:09:48.139Z,0.70
2019-01-04T02:12:18.281Z,0.70
2019-01-04T02:14:48.366Z,0.70
2019-01-04T02:17:18.486Z,0.80
2019-01-04T02:19:48.593Z,0.80
2019-01-04T02:22:18.702Z,0.80
2019-01-04T02:24:48.814Z,0.70
2019-01-04T02:27:18.902Z,0.70
2019-01-04T02:29:49.043Z,0.70
2019-01-04T02:32:19.145Z,0.70
2019-01-04T02:34:49.266Z,0.70
2019-01-04T02:37:19.401Z,0.80
2019-01-04T02:39:49.501Z,0.80
2019-01-04T02:42:19.622Z,0.80
2019-01-04T02:44:49.732Z,0.80
2019-01-04T02:47:19.898Z,0.80
2019-01-04T02:49:49.999Z,0.80
2019-01-04T02:52:20.111Z,0.80
2019-01-04T02:54:50.234Z,0.80
2019-01-04T02:57:20.327Z,0.70
2019-01-04T02:59:50.457Z,0.70
2019-01-04T03:02:39.730Z,0.80
2019-01-04T03:05:10.118Z,0.80
2019-01-04T03:07:41.288Z,0.80
2019-01-04T03:10:11.430Z,0.70
2019-01-04T03:12:41.546Z,0.80
2019-01-04T03:15:11.675Z,0.80
2019-01-04T03:17:41.794Z,0.80
2019-01-04T03:20:11.910Z,0.80
2019-01-04T03:22:42.026Z,0.70
2019-01-04T03:25:12.135Z,0.80
2019-01-04T03:27:42.342Z,0.80
2019-01-04T03:30:12.439Z,0.80
2019-01-04T03:32:42.812Z,0.80
2019-01-04T03:35:13.240Z,0.90
2019-01-04T03:37:43.328Z,0.80
2019-01-04T03:40:13.447Z,0.90
2019-01-04T03:42:43.580Z,0.90
2019-01-04T03:45:13.679Z,0.90
2019-01-04T03:47:43.799Z,0.90
2019-01-04T03:50:13.897Z,0.90
2019-01-04T03:52:44.103Z,0.90
2019-01-04T03:55:14.191Z,0.90
2019-01-04T03:57:44.310Z,0.90
2019-01-04T04:00:15.495Z,0.90
2019-01-04T04:02:45.591Z,0.90
2019-01-04T04:05:15.801Z,0.90
2019-01-04T04:07:45.898Z,0.90
2019-01-04T04:10:16.041Z,0.90
2019-01-04T04:12:46.145Z,0.90
2019-01-04T04:15:16.335Z,0.90
2019-01-04T04:17:46.448Z,0.90
2019-01-04T04:20:17.615Z,0.90
2019-01-04T04:22:47.734Z,0.80
2019-01-04T04:25:17.830Z,0.90
2019-01-04T04:27:47.978Z,0.90
2019-01-04T04:30:18.079Z,0.90
2019-01-04T04:32:48.197Z,1.00
2019-01-04T04:35:18.311Z,1.00
2019-01-04T04:37:48.403Z,1.00
2019-01-04T04:40:18.527Z,1.00
2019-01-04T04:42:48.623Z,1.00
2019-01-04T04:45:18.798Z,0.90
2019-01-04T04:47:48.910Z,0.90
2019-01-04T04:50:19.093Z,0.90
2019-01-04T04:52:49.183Z,1.00
2019-01-04T04:55:19.307Z,0.90
2019-01-04T04:57:49.424Z,1.00
2019-01-04T05:00:19.514Z,1.00
2019-01-04T05:02:49.630Z,1.00
2019-01-04T05:05:19.814Z,1.00
2019-01-04T05:07:50.131Z,1.00
2019-01-04T05:10:20.246Z,1.00
2019-01-04T05:12:50.363Z,1.00
2019-01-04T05:15:20.483Z,1.00
2019-01-04T05:17:50.602Z,1.10
2019-01-04T05:20:20.722Z,1.10
2019-01-04T05:22:50.819Z,1.10
2019-01-04T05:25:20.938Z,1.10
2019-01-04T05:27:51.030Z,1.10
2019-01-04T05:30:21.411Z,1.20
2019-01-04T05:32:51.506Z,1.20
2019-01-04T05:35:21.621Z,1.20
2019-01-04T05:37:51.737Z,1.20
2019-01-04T05:40:21.838Z,1.20
2019-01-04T05:42:51.963Z,1.20
2019-01-04T05:45:22.057Z,1.20
2019-01-04T05:47:52.291Z,1.20
2019-01-04T05:50:22.390Z,1.20
2019-01-04T05:52:52.518Z,1.20
2019-01-04T05:55:22.638Z,1.20
2019-01-04T05:57:52.738Z,1.20
2019-01-04T06:00:22.866Z,1.20
2019-01-04T06:02:52.954Z,1.20
2019-01-04T06:05:23.250Z,1.30
2019-01-04T06:07:53.342Z,1.30
2019-01-04T06:10:23.437Z,1.30
2019-01-04T06:12:53.563Z,1.30
2019-01-04T06:15:23.659Z,1.30
2019-01-04T06:17:53.838Z,1.40
2019-01-04T06:20:23.926Z,1.40
2019-01-04T06:22:54.043Z,1.40
2019-01-04T06:25:24.162Z,1.40
2019-01-04T06:27:54.258Z,1.40
2019-01-04T06:30:24.380Z,1.40
2019-01-04T06:32:54.469Z,1.40
2019-01-04T06:35:24.615Z,1.40
2019-01-04T06:37:54.710Z,1.50
2019-01-04T06:40:24.850Z,1.50
2019-01-04T06:42:54.947Z,1.50
2019-01-04T06:45:25.062Z,1.50
2019-01-04T06:47:55.175Z,1.50
2019-01-04T06:50:25.268Z,1.50
2019-01-04T06:52:55.386Z,1.60
2019-01-04T06:56:08.715Z,1.50
2019-01-04T06:58:38.830Z,1.50
2019-01-04T07:01:08.928Z,1.60
2019-01-04T07:03:39.082Z,1.60
2019-01-04T07:06:09.215Z,1.60
2019-01-04T07:08:39.347Z,1.60
2019-01-04T07:11:09.469Z,1.60
2019-01-04T07:13:39.606Z,1.60
2019-01-04T07:16:09.722Z,1.60
2019-01-04T07:18:39.820Z,1.60
2019-01-04T07:21:09.949Z,1.70
2019-01-04T07:23:40.030Z,1.70
2019-01-04T07:26:10.410Z,1.70
2019-01-04T07:28:40.506Z,1.70
2019-01-04T07:31:10.626Z,1.70
2019-01-04T07:33:41.090Z,1.70
2019-01-04T07:36:11.182Z,1.70
2019-01-04T07:38:41.306Z,1.70
2019-01-04T07:41:11.403Z,1.80
2019-01-04T07:43:41.870Z,1.80
2019-01-04T07:46:11.954Z,1.80
2019-01-04T07:48:42.123Z,1.80
2019-01-04T07:51:12.559Z,1.80
2019-01-04T07:53:42.683Z,1.80
2019-01-04T07:56:12.806Z,1.90
2019-01-04T07:58:42.963Z,1.90
2019-01-04T08:01:13.089Z,1.90
2019-01-04T08:03:44.242Z,1.90
2019-01-04T08:06:14.642Z,1.90
2019-01-04T08:08:44.744Z,1.90
2019-01-04T08:11:15.111Z,1.90
2019-01-04T08:13:45.278Z,1.90
2019-01-04T08:16:16.422Z,1.90
2019-01-04T08:18:46.505Z,1.90
2019-01-04T08:21:16.635Z,1.90
2019-01-04T08:23:47.687Z,2.00
2019-01-04T08:26:17.890Z,1.90
2019-01-04T08:28:47.999Z,1.90
2019-01-04T08:31:18.114Z,1.90
2019-01-04T08:33:48.234Z,2.00
2019-01-04T08:36:18.354Z,2.00
2019-01-04T08:38:48.479Z,2.00
2019-01-04T08:41:18.570Z,2.00
2019-01-04T08:43:48.718Z,2.00
2019-01-04T08:46:18.817Z,2.00
2019-01-04T08:48:48.947Z,2.10
2019-01-04T08:51:20.207Z,2.10
2019-01-04T08:54:01.490Z,2.10
2019-01-04T08:56:35.091Z,2.20
2019-01-04T08:59:05.249Z,2.20
2019-01-04T09:01:36.378Z,2.20
2019-01-04T09:04:07.810Z,2.20
2019-01-04T09:06:38.550Z,2.30
2019-01-04T09:09:09.745Z,2.30
2019-01-04T09:11:39.847Z,2.30
2019-01-04T09:14:10.002Z,2.30
2019-01-04T09:16:40.106Z,2.30
2019-01-04T09:19:10.218Z,2.40
2019-01-04T09:21:40.623Z,2.40
2019-01-04T09:24:10.718Z,2.40
2019-01-04T09:26:40.843Z,2.40
2019-01-04T09:29:10.946Z,2.50
2019-01-04T09:31:41.203Z,2.50
2019-01-04T09:34:11.310Z,2.60
2019-01-04T09:36:41.720Z,2.60
2019-01-04T09:39:12.062Z,2.60
2019-01-04T09:41:55.460Z,2.60
2019-01-04T09:44:26.451Z,2.60
2019-01-04T09:46:56.602Z,2.60
2019-01-04T09:49:26.695Z,2.70
2019-01-04T09:51:58.450Z,2.70
2019-01-04T09:54:28.558Z,2.70
2019-01-04T09:56:58.679Z,2.80
2019-01-04T09:59:28.800Z,2.80
2019-01-04T10:01:59.351Z,2.80
2019-01-04T10:04:29.462Z,2.80
2019-01-04T10:06:59.646Z,2.80
2019-01-04T10:09:30.053Z,2.80
2019-01-04T10:12:00.297Z,2.90
2019-01-04T10:14:30.410Z,2.90
2019-01-04T10:17:00.918Z,2.90
2019-01-04T10:19:31.010Z,2.90
2019-01-04T10:22:01.130Z,3.00
2019-01-04T10:24:33.502Z,2.90
2019-01-04T10:27:03.635Z,3.00
2019-01-04T10:29:33.731Z,3.00
2019-01-04T10:32:04.189Z,3.00
2019-01-04T10:34:34.631Z,3.00
2019-01-04T10:37:04.765Z,3.10
2019-01-04T10:39:34.884Z,3.10
2019-01-04T10:42:04.976Z,3.10
2019-01-04T10:44:35.102Z,3.10
2019-01-04T10:47:05.199Z,3.10
2019-01-04T10:49:35.425Z,3.10
2019-01-04T10:52:06.594Z,3.20
2019-01-04T10:54:36.767Z,3.20
2019-01-04T10:57:06.859Z,3.20
2019-01-04T10:59:37.246Z,3.20
2019-01-04T11:02:07.342Z,3.20
2019-01-04T11:04:37.474Z,3.20
2019-01-04T11:07:07.659Z,3.30
2019-01-04T11:09:37.774Z,3.30
2019-01-04T11:12:07.890Z,3.30
2019-01-04T11:14:37.915Z,3.30
2019-01-04T11:17:08.126Z,3.40
2019-01-04T11:19:38.221Z,3.40
2019-01-04T11:22:44.418Z,3.40
2019-01-04T11:26:03.614Z,3.40
2019-01-04T11:29:27.123Z,3.40
2019-01-04T11:32:25.654Z,3.40
2019-01-04T11:35:22.862Z,3.40
2019-01-04T11:38:16.074Z,3.40
2019-01-04T11:41:30.051Z,3.50
2019-01-04T11:44:17.987Z,3.50
2019-01-04T11:47:20.153Z,3.40
2019-01-04T11:50:21.387Z,3.50
2019-01-04T11:52:56.054Z,3.50
2019-01-04T11:55:26.158Z,3.50
2019-01-04T11:57:56.278Z,3.60
2019-01-04T12:00:26.467Z,3.50
2019-01-04T12:02:56.972Z,3.60
2019-01-04T12:05:27.086Z,3.60
2019-01-04T12:07:57.359Z,3.60
2019-01-04T12:10:27.478Z,3.60
2019-01-04T12:12:57.607Z,3.60
2019-01-04T12:15:28.098Z,3.60
2019-01-04T12:17:59.487Z,3.60
2019-01-04T12:20:31.014Z,3.60
2019-01-04T12:23:01.956Z,3.60
2019-01-04T12:25:32.344Z,3.70
2019-01-04T12:28:02.503Z,3.70
2019-01-04T12:30:33.711Z,3.70
2019-01-04T12:33:03.815Z,3.70
2019-01-04T12:35:33.957Z,3.70
2019-01-04T12:38:04.047Z,3.70
2019-01-04T12:40:34.538Z,3.60
2019-01-04T12:43:04.694Z,3.70
2019-01-04T12:45:34.832Z,3.70
2019-01-04T12:48:04.951Z,3.70
2019-01-04T12:50:35.047Z,3.70
2019-01-04T12:53:05.857Z,3.70
2019-01-04T12:55:35.952Z,3.60
2019-01-04T12:58:06.120Z,3.70
2019-01-04T13:00:36.219Z,3.70
2019-01-04T13:03:06.339Z,3.70
2019-01-04T13:05:36.475Z,3.70
2019-01-04T13:08:06.252Z,3.80
2019-01-04T13:10:36.395Z,3.80
2019-01-04T13:13:06.495Z,3.80
2019-01-04T13:15:36.606Z,3.80
2019-01-04T13:18:06.705Z,3.80
2019-01-04T13:20:36.922Z,3.80
2019-01-04T13:23:07.019Z,3.80
2019-01-04T13:25:37.511Z,3.80
2019-01-04T13:28:07.630Z,3.80
2019-01-04T13:30:37.730Z,3.90
2019-01-04T13:33:07.835Z,3.90
2019-01-04T13:35:37.958Z,3.90
2019-01-04T13:38:08.731Z,3.80
2019-01-04T13:40:38.806Z,3.90
2019-01-04T13:43:08.938Z,3.90
2019-01-04T13:45:39.039Z,3.80
2019-01-04T13:48:09.478Z,3.90
2019-01-04T13:50:39.618Z,3.90
2019-01-04T13:53:09.731Z,4.00
2019-01-04T13:55:39.846Z,3.90
2019-01-04T13:58:09.974Z,3.90
2019-01-04T14:00:40.170Z,4.00
2019-01-04T14:03:10.263Z,4.00
2019-01-04T14:05:40.375Z,4.00
2019-01-04T14:08:10.546Z,4.00
2019-01-04T14:10:40.646Z,4.00
2019-01-04T14:13:10.766Z,4.00
2019-01-04T14:15:41.930Z,3.90
2019-01-04T14:18:12.148Z,4.00
2019-01-04T14:20:42.230Z,4.00
2019-01-04T14:23:12.376Z,4.00
2019-01-04T14:25:42.490Z,4.00
2019-01-04T14:28:12.585Z,4.00
2019-01-04T14:30:42.706Z,4.10
2019-01-04T14:33:12.799Z,4.10
2019-01-04T14:35:42.930Z,4.00
2019-01-04T14:38:13.041Z,4.00
2019-01-04T14:40:43.141Z,4.10
2019-01-04T14:43:13.252Z,4.10
2019-01-04T14:45:43.420Z,4.20
2019-01-04T14:48:13.843Z,4.10
2019-01-04T14:50:43.942Z,4.10
2019-01-04T14:53:14.150Z,4.10
2019-01-04T14:55:44.238Z,4.10
2019-01-04T14:58:14.355Z,4.10
2019-01-04T15:00:44.473Z,4.20
2019-01-04T15:03:14.576Z,4.20
2019-01-04T15:05:50.320Z,4.20
2019-01-04T15:08:16.466Z,4.20
2019-01-04T15:10:46.610Z,4.20
2019-01-04T15:13:16.706Z,4.20
2019-01-04T15:15:46.919Z,4.20
2019-01-04T15:18:17.006Z,4.20
2019-01-04T15:20:47.115Z,4.20
2019-01-04T15:23:17.250Z,4.20
2019-01-04T15:25:47.375Z,4.20
2019-01-04T15:28:17.486Z,4.20
2019-01-04T15:30:47.585Z,4.20
2019-01-04T15:33:17.694Z,4.20
2019-01-04T15:35:48.703Z,4.30
2019-01-04T15:38:18.858Z,4.30
2019-01-04T15:40:48.956Z,4.20
2019-01-04T15:43:21.386Z,4.30
2019-01-04T15:45:51.490Z,4.30
2019-01-04T15:48:22.004Z,4.30
2019-01-04T15:50:52.498Z,4.30
2019-01-04T15:53:23.149Z,4.30
2019-01-04T15:55:53.183Z,4.30
2019-01-04T15:58:23.311Z,4.30
2019-01-04T16:00:53.465Z,4.30
2019-01-04T16:03:23.564Z,4.40
2019-01-04T16:05:53.674Z,4.40
2019-01-04T16:08:23.842Z,4.40
2019-01-04T16:10:54.053Z,4.40
2019-01-04T16:13:24.151Z,4.40
2019-01-04T16:15:54.294Z,4.40
2019-01-04T16:18:24.421Z,4.40
2019-01-04T16:20:54.527Z,4.40
2019-01-04T16:23:24.950Z,4.40
2019-01-04T16:25:55.038Z,4.50
2019-01-04T16:28:25.287Z,4.50
2019-01-04T16:30:55.696Z,4.50
2019-01-04T16:33:25.809Z,4.50
2019-01-04T16:35:55.927Z,4.50
2019-01-04T16:38:26.052Z,4.50
2019-01-04T16:40:56.532Z,4.50
2019-01-04T16:43:26.640Z,4.50
2019-01-04T16:45:57.075Z,4.50
2019-01-04T16:48:27.175Z,4.60
2019-01-04T16:50:57.309Z,4.60
2019-01-04T16:53:27.413Z,4.60
2019-01-04T16:55:57.546Z,4.50
2019-01-04T16:58:27.676Z,4.50
2019-01-04T17:00:58.076Z,4.50
2019-01-04T17:03:28.197Z,4.50
2019-01-04T17:05:58.314Z,4.50
2019-01-04T17:08:28.712Z,4.50
2019-01-04T17:10:58.790Z,4.50
2019-01-04T17:13:28.995Z,4.50
2019-01-04T17:15:59.088Z,4.50
2019-01-04T17:18:29.202Z,4.40
2019-01-04T17:20:59.334Z,4.40
2019-01-04T17:23:30.574Z,4.50
2019-01-04T17:26:01.159Z,4.40
2019-01-04T17:28:31.827Z,4.50
2019-01-04T17:31:01.930Z,4.40
2019-01-04T17:33:33.179Z,4.50
2019-01-04T17:36:03.287Z,4.40
2019-01-04T17:38:33.434Z,4.50
2019-01-04T17:41:03.547Z,4.40
2019-01-04T17:43:33.642Z,4.50
2019-01-04T17:46:03.762Z,4.40
2019-01-04T17:48:33.879Z,4.40
2019-01-04T17:51:03.994Z,4.40
2019-01-04T17:53:34.787Z,4.40
2019-01-04T17:56:05.024Z,4.40
2019-01-04T17:58:35.474Z,4.40
2019-01-04T18:01:06.003Z,4.40
2019-01-04T18:03:36.430Z,4.40
2019-01-04T18:06:06.961Z,4.40
2019-01-04T18:08:37.190Z,4.40
2019-01-04T18:11:07.319Z,4.40
2019-01-04T18:13:38.425Z,4.40
2019-01-04T18:16:08.945Z,4.40
2019-01-04T18:18:39.085Z,4.40
2019-01-04T18:21:09.551Z,4.40
2019-01-04T18:23:39.714Z,4.50
2019-01-04T18:26:09.827Z,4.50
2019-01-04T18:28:40.234Z,4.50
2019-01-04T18:31:10.643Z,4.50
2019-01-04T18:33:40.766Z,4.50
2019-01-04T18:36:10.874Z,4.50
2019-01-04T18:38:40.963Z,4.50
2019-01-04T18:41:11.170Z,4.50
2019-01-04T18:43:41.271Z,4.50
2019-01-04T18:46:11.660Z,4.50
2019-01-04T18:48:42.106Z,4.50
2019-01-04T18:51:12.255Z,4.50
2019-01-04T18:53:42.350Z,4.50
2019-01-04T18:56:12.467Z,4.50
2019-01-04T18:58:42.579Z,4.50
2019-01-04T19:01:13.773Z,4.60
2019-01-04T19:03:44.095Z,4.50
2019-01-04T19:06:14.199Z,4.50
2019-01-04T19:08:44.416Z,4.50
2019-01-04T19:11:15.278Z,4.50
2019-01-04T19:13:45.415Z,4.60
2019-01-04T19:16:15.436Z,4.60
2019-01-04T19:18:46.726Z,4.50
2019-01-04T19:21:17.150Z,4.50
2019-01-04T19:23:47.270Z,4.50
2019-01-04T19:26:17.355Z,4.40
2019-01-04T19:28:47.481Z,4.40
2019-01-04T19:31:17.599Z,4.40
2019-01-04T19:33:47.722Z,4.40
2019-01-04T19:36:17.843Z,4.40
2019-01-04T19:38:47.941Z,4.40
2019-01-04T19:41:18.126Z,4.40
2019-01-04T19:43:48.214Z,4.40
2019-01-04T19:46:18.416Z,4.40
2019-01-04T19:48:48.510Z,4.30
2019-01-04T19:51:18.630Z,4.30
2019-01-04T19:53:48.738Z,4.30
2019-01-04T19:56:18.830Z,4.30
2019-01-04T19:58:48.982Z,4.30
2019-01-04T20:01:19.072Z,4.30
2019-01-04T20:03:49.288Z,4.30
2019-01-04T20:07:12.918Z,4.30
2019-01-04T20:10:51.063Z,4.30
2019-01-04T20:14:17.014Z,4.40
2019-01-04T20:20:13.936Z,4.50
2019-01-04T20:23:21.751Z,4.40
2019-01-04T20:26:20.016Z,4.50
2019-01-04T20:29:11.062Z,4.50
2019-01-04T20:31:58.974Z,4.50
2019-01-04T20:34:42.131Z,4.50
2019-01-04T20:37:39.147Z,4.60
2019-01-04T20:40:34.390Z,4.60
2019-01-04T20:43:17.143Z,4.70
2019-01-04T20:46:09.358Z,4.70
2019-01-04T20:49:15.887Z,4.70
2019-01-04T20:52:06.342Z,4.70
2019-01-04T20:55:04.724Z,4.70
2019-01-04T20:57:54.583Z,4.70
2019-01-04T21:00:49.782Z,4.80
2019-01-04T21:03:42.058Z,4.80
2019-01-04T21:06:37.012Z,4.90
2019-01-04T21:09:32.595Z,4.90
2019-01-04T21:12:20.734Z,4.90
2019-01-04T21:15:08.592Z,5.00
2019-01-04T21:17:56.482Z,5.00
2019-01-04T21:20:51.171Z,5.00
2019-01-04T21:23:49.851Z,5.10
2019-01-04T21:26:51.189Z,5.10
2019-01-04T21:29:47.207Z,5.10
2019-01-04T21:32:35.078Z,5.20
2019-01-04T21:35:30.276Z,5.20
2019-01-04T21:38:18.746Z,5.20
2019-01-04T21:41:02.439Z,5.20
2019-01-04T21:43:58.622Z,5.20
2019-01-04T21:46:40.562Z,5.30
2019-01-04T21:49:29.837Z,5.30
2019-01-04T21:52:21.746Z,5.30
2019-01-04T21:55:11.120Z,5.40
2019-01-04T21:58:03.488Z,5.40
2019-01-04T22:01:05.902Z,5.40
2019-01-04T22:03:53.362Z,5.50
2019-01-04T22:06:51.942Z,5.50
2019-01-04T22:09:41.102Z,5.50
2019-01-04T22:12:29.338Z,5.50
2019-01-04T22:15:33.903Z,5.50
2019-01-04T22:18:21.734Z,5.50
2019-01-04T22:21:29.006Z,5.60
2019-01-04T22:24:18.466Z,5.60
2019-01-04T22:27:10.315Z,5.60
2019-01-04T22:29:57.838Z,5.60
2019-01-04T22:32:46.991Z,5.60
2019-01-04T22:35:38.982Z,5.70
2019-01-04T22:38:28.130Z,5.70
2019-01-04T22:41:32.803Z,5.60
2019-01-04T22:44:20.595Z,5.60
2019-01-04T22:47:00.946Z,5.70
2019-01-04T22:49:56.449Z,5.70
2019-01-04T22:52:44.481Z,5.70
2019-01-04T22:55:35.597Z,5.70
2019-01-04T22:58:37.001Z,5.70
2019-01-04T23:01:24.883Z,5.70
2019-01-04T23:04:23.478Z,5.70
2019-01-04T23:07:22.191Z,5.80
2019-01-04T23:10:23.750Z,5.70
2019-01-04T23:13:11.972Z,5.80
2019-01-04T23:16:09.091Z,5.80
2019-01-04T23:19:01.256Z,5.80
2019-01-04T23:22:22.438Z,5.80
2019-01-04T23:25:16.710Z,5.80
2019-01-04T23:28:17.925Z,5.80
2019-01-04T23:31:16.178Z,5.80
2019-01-04T23:34:11.170Z,5.80
2019-01-04T23:37:06.134Z,5.90
2019-01-04T23:39:54.318Z,5.90
2019-01-04T23:42:42.358Z,5.90
2019-01-04T23:45:37.483Z,5.90
2019-01-04T23:48:26.622Z,6.00
2019-01-04T23:51:21.710Z,5.90
2019-01-04T23:54:25.976Z,6.00
2019-01-04T23:57:15.158Z,6.00
